Latest Weather Observations for Scotts Peak

IDT60801

Issued at 6:01 pm EDT Tuesday 3 March 2015 (issued every 30 minutes, with the page automatically refreshed every 10 minutes)

About weather observations | Map of weather stations | Latest weather observations for TAS | Other Formats
Station Details ID: 097083 Name: SCOTTS PEAK DAM Lat: -43.04 Lon: 146.27 Height: 408.0 m
Data from the previous 72 hours. | See also: Recent months at Scotts Peak
Date/Time
EDT
Temp
°C
App
Temp
°C
Dew
Point
Rel
Hum
%
Delta-T
°C
Wind Press
QNH
hPa
Press
MSL
hPa
Rain
since 9 am
mm
Dir
 
Spd
km/h
Gust
km/h
Spd
kts
Gust
kts
03/06:00pm 13.9 6.4 6.3 60 3.7 NNW 35 46 19 25 - - 0.2
03/05:30pm 14.9 9.0 7.7 62 3.7 NW 28 39 15 21 - - 0.2
03/05:00pm 12.7 5.3 3.9 55 4.1 WNW 32 43 17 23 - - 0.2
03/04:30pm 13.0 5.7 4.4 56 4.0 WNW 32 39 17 21 - - 0.2
03/04:28pm 12.9 5.3 3.8 54 4.2 WNW 33 48 18 26 - - 0.2
03/04:00pm 13.4 5.0 3.8 52 4.4 WNW 37 46 20 25 - - 0.2
03/03:30pm 14.1 5.3 3.6 49 4.9 WNW 39 52 21 28 - - 0.2
03/03:21pm 14.5 6.9 3.9 49 5.0 NW 33 52 18 28 - - 0.2
03/03:00pm 14.2 6.0 4.8 53 4.5 NW 37 46 20 25 - - 0.2
03/02:45pm 14.2 6.7 3.4 48 5.0 WNW 32 50 17 27 - - 0.2
03/02:30pm 16.5 9.7 6.9 53 4.8 NW 32 44 17 24 - - 0.2
03/02:00pm 13.5 7.9 5.2 57 4.0 NW 24 33 13 18 - - 0.2
03/01:30pm 14.6 8.0 6.2 57 4.1 NW 30 35 16 19 - - 0.0
03/01:00pm 13.3 7.0 5.5 59 3.7 WNW 28 37 15 20 - - 0.0
03/12:30pm 16.3 10.8 7.5 56 4.5 NW 26 33 14 18 - - 0.0
03/12:00pm 12.3 5.2 5.7 64 3.2 NW 32 41 17 22 - - 0.0
03/11:30am 12.6 6.7 5.8 63 3.3 NW 26 35 14 19 - - 0.0
03/11:00am 11.0 5.3 4.9 66 2.8 WNW 24 37 13 20 - - 0.0
03/10:30am 10.9 5.0 5.9 71 2.4 WNW 26 35 14 19 - - 0.0
03/10:00am 11.2 5.9 5.1 66 2.9 NW 22 33 12 18 - - 0.0
03/09:30am 10.5 5.7 7.4 81 1.5 NW 22 30 12 16 - - 0.0
03/09:00am 9.1 3.8 6.7 85 1.1 NW 24 32 13 17 - - 2.4
03/08:30am 8.6 3.9 6.2 85 1.1 WNW 20 28 11 15 - - 2.4
03/08:00am 8.5 4.5 6.6 88 0.9 NW 17 20 9 11 - - 2.4
03/07:30am 8.3 3.7 5.8 84 1.2 WNW 19 24 10 13 - - 2.4
03/07:00am 8.4 3.8 6.4 87 0.9 W 20 28 11 15 - - 2.4
03/06:30am 8.7 4.3 6.5 86 1.0 W 19 28 10 15 - - 2.4
03/06:00am 8.6 3.7 6.7 88 0.9 W 22 26 12 14 - - 2.4
03/05:30am 9.0 4.2 7.3 89 0.8 W 22 32 12 17 - - 2.4
03/05:00am 9.0 3.2 7.8 92 0.6 W 28 35 15 19 - - 2.4
03/04:30am 9.1 5.0 8.5 96 0.3 W 20 28 11 15 - - 2.4
03/04:00am 9.1 3.1 8.5 96 0.3 WNW 30 33 16 18 - - 2.0
03/03:30am 9.1 2.6 8.0 93 0.5 W 32 39 17 21 - - 1.8
03/03:00am 9.6 3.7 9.1 97 0.3 WNW 30 35 16 19 - - 1.4
03/02:30am 9.6 3.7 9.1 97 0.3 WNW 30 35 16 19 - - 1.2
03/02:00am 9.5 2.5 8.6 94 0.4 WNW 35 54 19 29 - - 0.6
03/01:51am 9.7 2.7 8.5 92 0.6 W 35 54 19 29 - - 0.4
03/01:41am 10.0 2.7 8.6 91 0.7 WNW 37 54 20 29 - - 0.2
03/01:30am 10.8 2.2 8.2 84 1.3 WNW 43 59 23 32 - - 0.2
03/01:20am 11.7 3.7 7.6 76 2.0 NW 39 57 21 31 - - 0.2
03/01:00am 11.5 4.4 8.2 80 1.7 NNW 35 46 19 25 - - 0.2
03/12:30am 11.4 3.6 8.1 80 1.6 NNW 39 50 21 27 - - 0.2
03/12:00am 11.1 4.9 7.8 80 1.6 NNW 30 44 16 24 - - 0.2
 
Date/Time
EDT
Temp
°C
App
Temp
°C
Dew
Point
Rel
Hum
%
Delta-T
°C
Wind Press
QNH
hPa
Press
MSL
hPa
Rain
since 9 am
mm
Dir
 
Spd
km/h
Gust
km/h
Spd
kts
Gust
kts
02/11:48pm 11.1 4.6 8.0 81 1.5 NNW 32 50 17 27 - - 0.2
02/11:30pm 11.1 4.9 7.8 80 1.6 NNW 30 39 16 21 - - 0.2
02/11:00pm 11.3 4.5 7.6 78 1.8 NNW 33 44 18 24 - - 0.2
02/10:50pm 11.3 5.4 7.4 77 1.9 NNW 28 46 15 25 - - 0.2
02/10:30pm 11.3 5.5 6.4 72 2.4 NW 26 39 14 21 - - 0.2
02/10:00pm 11.1 3.8 7.0 76 2.0 NNW 35 46 19 25 - - 0.2
02/09:30pm 10.9 5.5 6.3 73 2.2 NNW 24 39 13 21 - - 0.2
02/09:00pm 11.2 6.2 6.5 73 2.3 NW 22 32 12 17 - - 0.2
02/08:30pm 11.3 3.2 5.2 66 2.9 WNW 37 48 20 26 - - 0.2
02/08:00pm 11.6 5.0 5.9 68 2.7 WNW 30 43 16 23 - - 0.2
02/07:30pm 11.9 6.2 6.8 71 2.5 WNW 26 32 14 17 - - 0.2
02/07:00pm 13.3 7.3 7.1 66 3.1 WNW 28 39 15 21 - - 0.2
02/06:39pm 14.5 8.7 7.8 64 3.4 WNW 28 46 15 25 - - 0.2
02/06:30pm 14.1 7.5 7.6 65 3.3 WNW 32 39 17 21 - - 0.2
02/06:00pm 15.0 9.0 8.7 66 3.3 NW 30 43 16 23 - - 0.2
02/05:30pm 15.1 11.0 8.6 65 3.4 NW 20 32 11 17 - - 0.2
02/05:00pm 15.8 8.9 7.3 57 4.3 NW 33 46 18 25 - - 0.2
02/04:30pm 16.1 9.6 8.1 59 4.1 NNW 32 41 17 22 - - 0.2
02/04:00pm 18.4 12.6 9.5 56 4.8 NNW 30 41 16 22 - - 0.2
02/03:30pm 17.7 11.7 8.8 56 4.7 NW 30 43 16 23 - - 0.2
02/03:00pm 17.8 12.2 8.9 56 4.7 NNW 28 37 15 20 - - 0.2
02/02:30pm 17.8 11.6 9.4 58 4.5 NNW 32 39 17 21 - - 0.2
02/02:00pm 18.4 13.7 10.7 61 4.2 NNW 26 32 14 17 - - 0.2
02/01:30pm 17.7 12.8 10.1 61 4.1 NNW 26 32 14 17 - - 0.0
02/01:00pm 16.4 11.6 10.3 67 3.3 N 26 32 14 17 - - 0.0
02/12:30pm 15.0 10.0 9.6 70 2.9 N 26 33 14 18 - - 0.0
02/12:00pm 14.4 10.4 9.2 71 2.7 N 20 28 11 15 - - 0.0
02/11:30am 12.7 10.4 7.4 70 2.6 NNW 9 20 5 11 - - 0.0
02/11:00am 12.3 9.4 6.6 68 2.8 N 11 17 6 9 - - 0.0
02/10:30am 12.0 8.3 7.9 76 2.0 NNW 17 22 9 12 - - 0.0
02/10:00am 10.8 8.1 7.5 80 1.6 NNW 11 17 6 9 - - 0.0
02/09:30am 8.2 5.5 5.5 83 1.2 N 9 15 5 8 - - 0.0
02/09:00am 9.2 6.6 6.1 81 1.5 NNW 9 13 5 7 - - 10.4
02/08:30am 7.2 5.1 6.0 92 0.6 N 6 9 3 5 - - 10.4
02/08:00am 5.9 3.6 4.9 93 0.4 NE 6 11 3 6 - - 10.4
02/07:30am 4.8 3.1 3.9 94 0.4 WSW 2 7 1 4 - - 10.4
02/07:00am 5.1 3.5 4.5 96 0.3 WNW 2 6 1 3 - - 10.4
02/06:30am 4.4 1.0 3.8 96 0.3 NNW 11 15 6 8 - - 10.4
02/06:00am 4.2 0.3 3.3 94 0.4 NNW 13 17 7 9 - - 10.4
02/05:30am 4.5 1.0 3.6 94 0.4 NW 11 15 6 8 - - 10.4
02/05:00am 4.4 0.9 3.4 93 0.4 NNW 11 15 6 8 - - 10.4
02/04:30am 4.8 1.6 2.8 87 0.8 NW 9 13 5 7 - - 10.4
02/04:00am 5.2 1.2 2.9 85 1.0 WNW 13 15 7 8 - - 10.4
02/03:30am 5.4 1.9 3.3 86 0.9 NW 11 15 6 8 - - 10.4
02/03:00am 5.5 1.2 3.2 85 1.0 WNW 15 24 8 13 - - 10.4
02/02:30am 4.9 0.2 3.4 90 0.6 NW 17 19 9 10 - - 10.4
02/02:00am 5.6 0.9 3.1 84 1.1 WNW 17 17 9 9 - - 10.4
02/01:30am 6.7 2.4 3.0 77 1.6 WNW 15 19 8 10 - - 10.4
02/01:00am 6.8 2.4 4.6 86 1.0 NW 17 20 9 11 - - 10.4
02/12:30am 7.2 2.7 4.3 82 1.3 WNW 17 19 9 10 - - 10.4
02/12:00am 6.8 4.0 5.0 88 0.8 NNW 9 11 5 6 - - 10.4
 
Date/Time
EDT
Temp
°C
App
Temp
°C
Dew
Point
Rel
Hum
%
Delta-T
°C
Wind Press
QNH
hPa
Press
MSL
hPa
Rain
since 9 am
mm
Dir
 
Spd
km/h
Gust
km/h
Spd
kts
Gust
kts
01/11:30pm 7.2 4.1 3.8 79 1.5 W 9 13 5 7 - - 10.4
01/11:00pm 7.4 4.1 4.5 82 1.3 W 11 15 6 8 - - 10.4
01/10:30pm 7.6 3.9 4.2 79 1.5 WNW 13 17 7 9 - - 10.4
01/10:00pm 7.4 3.7 4.7 83 1.2 WNW 13 15 7 8 - - 10.4
01/09:30pm 7.6 3.1 4.4 80 1.4 W 17 26 9 14 - - 10.4
01/09:00pm 7.7 3.3 4.5 80 1.4 W 17 26 9 14 - - 10.4
01/08:30pm 7.9 3.5 5.0 82 1.3 WSW 17 28 9 15 - - 10.4
01/08:00pm 8.3 4.4 5.2 81 1.4 WSW 15 32 8 17 - - 10.4
01/07:30pm 8.8 4.1 5.9 82 1.4 WSW 20 28 11 15 - - 10.4
01/07:00pm 9.1 4.5 6.4 83 1.3 WNW 20 32 11 17 - - 10.4
01/06:30pm 9.3 4.2 6.2 81 1.5 W 22 33 12 18 - - 10.4
01/06:00pm 9.7 5.7 6.8 82 1.4 WSW 17 30 9 16 - - 10.4
01/05:30pm 9.8 6.3 7.2 84 1.3 WSW 15 30 8 16 - - 10.4
01/05:00pm 9.9 5.7 7.3 84 1.3 W 19 26 10 14 - - 10.4
01/04:30pm 10.6 6.6 9.0 90 0.8 W 20 32 11 17 - - 10.4
01/04:00pm 9.6 4.3 8.5 93 0.5 WSW 26 39 14 21 - - 10.4
01/03:30pm 9.3 3.2 8.2 93 0.5 WSW 30 48 16 26 - - 10.4
01/03:22pm 9.4 3.6 8.0 91 0.7 WSW 28 48 15 26 - - 10.2
01/03:00pm 10.2 5.6 8.0 86 1.1 WSW 22 37 12 20 - - 10.0
01/02:36pm 9.9 4.2 8.3 90 0.8 WSW 28 46 15 25 - - 10.0
01/02:30pm 9.7 3.0 8.0 89 0.8 SW 33 46 18 25 - - 9.6
01/02:14pm 9.7 3.1 7.8 88 0.9 WSW 32 50 17 27 - - 9.6
01/02:00pm 10.7 4.4 9.1 90 0.8 WSW 32 46 17 25 - - 9.4
01/01:30pm 10.0 4.5 9.1 94 0.5 WSW 28 46 15 25 - - 9.4
01/01:26pm 9.6 4.0 8.7 94 0.5 WSW 28 46 15 25 - - 9.0
01/01:00pm 10.1 4.6 9.2 94 0.5 WSW 28 43 15 23 - - 7.4
01/12:40pm 9.6 4.0 8.7 94 0.5 WSW 28 46 15 25 - - 6.6
01/12:30pm 9.7 5.2 8.5 92 0.6 WSW 22 32 12 17 - - 6.0
01/12:00pm 10.4 4.4 8.8 90 0.8 WSW 30 44 16 24 - - 4.4
01/11:50am 9.8 4.1 8.2 90 0.8 W 28 46 15 25 - - 4.4
01/11:30am 10.7 7.0 9.6 93 0.6 W 19 35 10 19 - - 4.2
01/11:14am 10.0 6.5 8.6 91 0.7 SW 17 35 9 19 - - 4.2
01/11:00am 9.9 7.5 8.5 91 0.7 WSW 11 22 6 12 - - 3.6
01/10:30am 9.5 7.0 8.4 93 0.5 WSW 11 28 6 15 - - 2.2
01/10:00am 9.8 5.3 8.6 92 0.6 WSW 22 32 12 17 - - 0.2
01/09:30am 9.3 4.7 8.2 93 0.5 W 22 37 12 20 - - 0.2
01/09:00am 9.1 3.4 8.2 94 0.4 WSW 28 43 15 23 - - 24.0
01/08:30am 9.3 4.6 7.9 91 0.7 W 22 35 12 19 - - 24.0
01/08:00am 9.0 2.2 7.9 93 0.5 WSW 33 54 18 29 - - 24.0
01/07:30am 8.9 2.8 8.1 95 0.4 WSW 30 52 16 28 - - 23.6
01/07:00am 8.9 2.7 8.0 94 0.4 W 30 52 16 28 - - 22.4
01/06:35am 8.9 2.8 8.1 95 0.4 W 30 52 16 28 - - 22.4
01/06:30am 8.9 2.8 8.1 95 0.4 W 30 52 16 28 - - 22.4
01/06:12am 9.1 3.4 8.5 96 0.3 WSW 28 46 15 25 - - 22.0
01/06:00am 9.4 4.2 8.9 97 0.3 WNW 26 35 14 19 - - 21.2
01/05:30am 9.6 2.8 9.3 98 0.2 WNW 35 46 19 25 - - 20.0
01/05:00am 9.7 2.1 9.1 96 0.3 WNW 39 50 21 27 - - 19.6
01/04:30am 9.8 3.0 9.2 96 0.3 WNW 35 43 19 23 - - 19.2
01/04:00am 9.9 2.7 9.3 96 0.3 WNW 37 44 20 24 - - 19.2
01/03:30am 10.1 2.5 9.2 94 0.5 WNW 39 50 21 27 - - 19.0
01/03:00am 10.0 1.7 9.2 95 0.4 WNW 43 54 23 29 - - 19.0
01/02:30am 10.2 2.0 9.6 96 0.3 NW 43 61 23 33 - - 19.0
01/02:13am 10.4 2.6 9.8 96 0.3 NW 41 59 22 32 - - 18.6
01/02:00am 10.4 1.6 9.5 94 0.5 WNW 46 59 25 32 - - 18.6
01/01:34am 10.4 1.3 9.8 96 0.3 WNW 48 67 26 36 - - 18.6
01/01:30am 10.5 0.6 9.9 96 0.3 NW 52 67 28 36 - - 18.6
01/01:00am 10.6 0.8 10.0 96 0.3 NW 52 69 28 37 - - 18.6
01/12:37am 10.7 1.2 9.8 94 0.5 NW 50 69 27 37 - - 18.6
01/12:30am 10.7 0.5 9.9 95 0.4 NW 54 67 29 36 - - 18.6
01/12:17am 10.8 0.0 9.9 94 0.5 WNW 57 76 31 41 - - 18.6
01/12:00am 11.2 0.6 10.6 96 0.3 WNW 57 74 31 40 - - 18.6
 
Date/Time
EDT
Temp
°C
App
Temp
°C
Dew
Point
Rel
Hum
%
Delta-T
°C
Wind Press
QNH
hPa
Press
MSL
hPa
Rain
since 9 am
mm
Dir
 
Spd
km/h
Gust
km/h
Spd
kts
Gust
kts
28/11:55pm 11.3 2.5 10.8 97 0.3 NW 48 74 26 40 - - 18.6
28/11:53pm 11.2 3.1 10.7 97 0.3 WNW 44 74 24 40 - - 18.6
28/11:30pm 11.5 4.8 10.9 96 0.3 WNW 37 50 20 27 - - 18.4
28/11:00pm 11.7 5.7 10.9 95 0.4 WNW 33 44 18 24 - - 18.0
28/10:44pm 11.8 4.2 10.5 92 0.7 WNW 41 59 22 32 - - 18.0
28/10:30pm 12.0 4.1 11.4 96 0.3 WNW 44 56 24 30 - - 18.0
28/10:00pm 12.4 2.2 11.9 97 0.3 WNW 57 70 31 38 - - 18.0
28/09:45pm 12.8 2.7 12.2 96 0.3 WNW 57 76 31 41 - - 18.0
28/09:30pm 13.6 3.7 13.0 96 0.3 WNW 57 72 31 39 - - 18.0
28/09:00pm 14.0 3.9 13.4 96 0.3 WNW 59 72 32 39 - - 17.8
28/08:42pm 14.7 7.6 14.1 96 0.3 WNW 44 63 24 34 - - 17.8
28/08:30pm 14.8 8.4 14.3 97 0.3 WNW 41 54 22 29 - - 17.8
28/08:24pm 14.8 9.6 14.5 98 0.2 WNW 35 54 19 29 - - 17.6
28/08:00pm 15.0 9.8 14.5 97 0.3 NW 35 43 19 23 - - 17.2
28/07:30pm 15.2 7.9 14.6 96 0.3 NW 46 59 25 32 - - 16.4
28/07:00pm 15.3 7.0 14.8 97 0.3 NW 52 65 28 35 - - 16.4
28/06:30pm 15.4 7.6 15.2 99 0.1 NNW 50 76 27 41 - - 16.4

Other Formats:

Comma delimited format used in spreadsheet applications
http://www.bom.gov.au/fwo/IDT60801/IDT60801.95958.axf

JavaScript Object Notation format (JSON) in row-major order
http://www.bom.gov.au/fwo/IDT60801/IDT60801.95958.json